Time;durP1;ratioP1;P1;durP2;ratioP2;P2;SDS_P1;SDS_P2;PMS_P1;PMS_P2;Temp;Humidity;BMP_temperature;BMP_pressure;BME280_temperature;BME280_humidity;BME280_pressure;Samples;Min_cycle;Max_cycle;Signal;HPM_P1;HPM_P2
2021/11/18 00:00:16;;;;;;;24.40;4.65;;;;;;;12.08;65.92;101483.31;4892687;28;122665;-83
2021/11/18 00:02:44;;;;;;;15.55;2.80;;;;;;;11.93;65.98;101450.75;4912201;28;119874;-83
2021/11/18 00:05:14;;;;;;;14.35;2.28;;;;;;;12.09;65.82;101473.84;4914178;28;123548;-83
2021/11/18 00:07:44;;;;;;;12.88;2.80;;;;;;;12.09;65.82;101476.59;4898014;28;119693;-83
2021/11/18 00:10:12;;;;;;;17.63;2.88;;;;;;;12.10;66.38;101469.88;4910859;28;122143;-83
2021/11/18 00:12:39;;;;;;;18.08;3.22;;;;;;;12.12;66.40;101479.22;4901931;28;123525;-82
2021/11/18 00:15:05;;;;;;;22.25;2.95;;;;;;;12.15;66.05;101489.34;4901415;28;121315;-83
2021/11/18 00:17:32;;;;;;;16.88;3.42;;;;;;;12.18;66.41;101482.19;4919777;28;124841;-82
2021/11/18 00:19:57;;;;;;;15.43;2.92;;;;;;;12.12;66.19;101479.22;4920639;28;120650;-84
2021/11/18 00:22:23;;;;;;;14.23;2.80;;;;;;;12.18;66.23;101509.69;4889824;28;120173;-83
2021/11/18 00:24:49;;;;;;;18.65;2.88;;;;;;;12.23;66.54;101501.66;4925191;28;119765;-83
2021/11/18 00:27:14;;;;;;;17.98;2.70;;;;;;;12.26;66.17;101494.50;4896334;28;119884;-83
2021/11/18 00:29:40;;;;;;;13.10;2.40;;;;;;;12.29;66.20;101501.84;4924512;28;119935;-83
2021/11/18 00:32:06;;;;;;;15.23;2.50;;;;;;;12.28;66.49;101503.06;4928790;28;120002;-84
2021/11/18 00:34:31;;;;;;;17.42;3.08;;;;;;;12.29;66.97;101493.59;4894548;28;119583;-83
2021/11/18 00:36:57;;;;;;;10.77;2.47;;;;;;;12.32;67.67;101478.22;4925058;28;119933;-83
2021/11/18 00:39:24;;;;;;;12.82;2.75;;;;;;;12.27;67.38;101454.78;4897728;28;123235;-83
2021/11/18 00:41:49;;;;;;;12.50;3.33;;;;;;;12.44;67.66;101477.41;4889662;28;120552;-83
2021/11/18 00:44:19;;;;;;;14.70;2.17;;;;;;;12.54;66.99;101481.81;4888952;28;122492;-83
2021/11/18 00:46:45;;;;;;;14.75;1.90;;;;;;;12.47;66.26;101466.28;4900577;28;125525;-83
2021/11/18 00:49:11;;;;;;;11.68;1.83;;;;;;;12.46;66.32;101467.50;4905800;28;122162;-83
2021/11/18 00:51:39;;;;;;;12.52;2.10;;;;;;;12.52;66.14;101486.97;4899721;28;120488;-83
2021/11/18 00:54:06;;;;;;;10.18;2.10;;;;;;;12.55;66.47;101506.13;4914368;28;120438;-83
2021/11/18 00:56:34;;;;;;;8.98;1.83;;;;;;;12.50;66.36;101489.38;4898703;28;122369;-82
2021/11/18 00:59:02;;;;;;;7.85;1.23;;;;;;;12.55;66.00;101511.63;4912435;28;123057;-82
2021/11/18 01:01:31;;;;;;;9.27;1.83;;;;;;;12.55;66.29;101508.88;4901265;28;119879;-84
2021/11/18 01:03:59;;;;;;;10.30;1.80;;;;;;;12.42;66.18;101488.88;4902222;28;122117;-82
2021/11/18 01:06:28;;;;;;;11.70;1.70;;;;;;;12.42;65.96;101493.59;4924057;28;121342;-83
2021/11/18 01:08:53;;;;;;;7.20;1.50;;;;;;;12.40;66.21;101499.56;4894377;28;119709;-83
2021/11/18 01:11:26;;;;;;;12.48;1.80;;;;;;;12.48;66.18;101522.84;4896413;28;123087;-83
2021/11/18 01:13:53;;;;;;;8.20;1.73;;;;;;;12.48;66.14;101522.84;4879960;28;119979;-83
2021/11/18 01:16:25;;;;;;;11.18;1.80;;;;;;;12.55;65.60;101530.13;4907632;28;122701;-84
2021/11/18 01:18:52;;;;;;;16.35;2.25;;;;;;;12.45;66.26;101520.22;4904608;28;123534;-83
2021/11/18 01:21:17;;;;;;;10.57;1.98;;;;;;;12.53;66.12;101535.28;4891088;28;119962;-83
2021/11/18 01:23:45;;;;;;;9.00;1.90;;;;;;;12.55;66.66;101528.16;4894869;28;122046;-83
2021/11/18 01:26:14;;;;;;;12.00;1.95;;;;;;;12.53;66.78;101513.28;4891405;28;122690;-83
2021/11/18 01:28:41;;;;;;;11.95;2.15;;;;;;;12.53;67.30;101488.50;4882492;28;119999;-84
2021/11/18 01:31:08;;;;;;;11.27;2.47;;;;;;;12.69;67.66;101504.88;4896077;28;120339;-84
2021/11/18 01:33:34;;;;;;;10.63;2.00;;;;;;;12.75;67.61;101508.59;4882095;28;120265;-83
2021/11/18 01:36:00;;;;;;;15.52;2.13;;;;;;;12.69;67.31;101507.63;4912821;28;120035;-83
2021/11/18 01:38:27;;;;;;;14.68;1.83;;;;;;;12.81;66.64;101519.84;4905068;28;119890;-83
2021/11/18 01:41:15;;;;;;;15.75;2.20;;;;;;;12.80;66.72;101527.31;4906880;28;119579;-83
2021/11/18 01:43:52;;;;;;;10.07;1.80;;;;;;;12.79;67.00;101531.28;4915904;28;122106;-83
2021/11/18 01:46:23;;;;;;;13.27;1.95;;;;;;;12.74;66.09;101528.31;4920511;28;120350;-83
2021/11/18 01:48:51;;;;;;;9.98;2.00;;;;;;;12.72;66.15;101531.50;4919969;28;121407;-83
2021/11/18 01:51:21;;;;;;;16.17;2.42;;;;;;;12.61;65.82;101517.34;4891486;28;122158;-83
2021/11/18 01:53:47;;;;;;;10.70;1.85;;;;;;;12.61;65.74;101531.09;4910797;28;119875;-84
2021/11/18 01:56:25;;;;;;;11.95;2.00;;;;;;;12.57;65.79;101535.97;4908642;28;122435;-83
2021/11/18 01:58:56;;;;;;;16.45;2.20;;;;;;;12.42;65.93;101526.63;4904714;28;123395;-83
2021/11/18 02:01:39;;;;;;;19.98;2.42;;;;;;;12.47;66.14;101534.31;4926607;28;119922;-83
2021/11/18 02:04:11;;;;;;;17.88;2.70;;;;;;;12.45;66.02;101531.22;4896244;28;122174;-83
2021/11/18 02:06:57;;;;;;;15.05;2.15;;;;;;;12.42;65.88;101543.91;4913866;28;123339;-83
2021/11/18 02:09:26;;;;;;;18.27;2.85;;;;;;;12.39;65.71;101546.75;4923245;28;119544;-84
2021/11/18 02:12:09;;;;;;;21.30;2.80;;;;;;;12.22;65.76;101522.13;4932490;28;122284;-83
2021/11/18 02:14:36;;;;;;;18.20;2.65;;;;;;;12.32;65.73;101541.50;4899173;28;123546;-83
2021/11/18 02:17:04;;;;;;;12.80;2.70;;;;;;;12.24;65.89;101511.44;4910589;28;121508;-83
2021/11/18 02:19:36;;;;;;;22.95;2.75;;;;;;;12.21;65.99;101515.06;4911750;28;124085;-83
2021/11/18 02:22:03;;;;;;;18.33;3.00;;;;;;;12.18;65.77;101507.72;4912335;28;119697;-83
2021/11/18 02:24:42;;;;;;;26.13;3.03;;;;;;;12.17;66.00;101519.16;4907181;28;120019;-82
2021/11/18 02:27:10;;;;;;;18.63;3.10;;;;;;;12.26;66.00;101524.75;4894789;28;124220;-83
2021/11/18 02:29:37;;;;;;;24.15;3.40;;;;;;;12.22;66.47;101516.63;4924670;28;119625;-83
2021/11/18 02:32:08;;;;;;;20.45;2.97;;;;;;;12.29;66.70;101516.38;4911972;28;122135;-83
2021/11/18 02:34:51;;;;;;;18.73;2.90;;;;;;;12.24;67.03;101505.16;4929406;28;120315;-83
2021/11/18 02:37:18;;;;;;;21.88;3.50;;;;;;;12.40;67.34;101531.78;4918220;28;119531;-83
2021/11/18 02:39:47;;;;;;;19.63;3.42;;;;;;;12.37;67.20;101522.44;4914022;28;120305;-83
2021/11/18 02:42:15;;;;;;;25.67;3.30;;;;;;;12.47;66.79;101535.06;4911446;28;119696;-83
2021/11/18 02:44:41;;;;;;;25.48;4.45;;;;;;;12.45;66.56;101522.97;4926851;28;119726;-83
2021/11/18 02:47:14;;;;;;;26.35;3.75;;;;;;;12.44;66.53;101524.19;4893069;28;122676;-83
2021/11/18 02:49:52;;;;;;;24.80;3.28;;;;;;;12.47;66.23;101528.81;4917754;28;120227;-83
2021/11/18 02:52:28;;;;;;;28.35;3.35;;;;;;;12.46;66.69;101528.03;4910401;28;122257;-84
2021/11/18 02:55:23;;;;;;;22.65;3.70;;;;;;;12.47;66.67;101526.81;4907816;28;122817;-83
2021/11/18 02:57:49;;;;;;;24.52;3.83;;;;;;;12.44;66.52;101513.19;4936523;28;119966;-83
2021/11/18 03:00:18;;;;;;;23.27;3.95;;;;;;;12.38;66.47;101517.72;4904074;28;121911;-83
2021/11/18 03:02:46;;;;;;;31.73;3.97;;;;;;;12.51;66.49;101523.94;4912480;28;119682;-83
2021/11/18 03:05:12;;;;;;;20.33;3.45;;;;;;;12.49;66.63;101520.88;4910781;28;122207;-83
2021/11/18 03:07:39;;;;;;;27.58;3.67;;;;;;;12.52;66.83;101518.00;4879939;28;124097;-83
2021/11/18 03:10:09;;;;;;;33.45;4.13;;;;;;;12.60;67.09;101529.56;4910555;28;119584;-83
2021/11/18 03:12:38;;;;;;;27.40;4.10;;;;;;;12.63;67.06;101525.94;4907953;28;122074;-83
2021/11/18 03:15:06;;;;;;;31.50;3.50;;;;;;;12.67;66.83;101523.81;4894349;28;123725;-84
2021/11/18 03:17:34;;;;;;;36.40;3.85;;;;;;;12.63;66.64;101516.91;4895802;28;120451;-83
2021/11/18 03:20:18;;;;;;;27.63;3.50;;;;;;;12.72;66.89;101526.00;4928360;28;121840;-83
2021/11/18 03:22:45;;;;;;;26.85;3.78;;;;;;;12.79;67.00;101530.53;4909035;28;120693;-83
2021/11/18 03:25:12;;;;;;;24.50;3.45;;;;;;;12.78;67.44;101517.97;4892444;28;123925;-83
2021/11/18 03:27:38;;;;;;;18.65;3.55;;;;;;;12.79;67.30;101498.25;4892305;28;123491;-83
2021/11/18 03:30:10;;;;;;;26.80;3.97;;;;;;;12.90;67.17;101520.66;4909480;28;125496;-83
2021/11/18 03:32:39;;;;;;;21.08;3.15;;;;;;;12.95;66.78;101524.06;4924844;28;120473;-83
2021/11/18 03:35:06;;;;;;;22.80;2.88;;;;;;;13.03;66.68;101534.41;4906393;28;123491;-83
2021/11/18 03:37:31;;;;;;;25.98;3.80;;;;;;;12.85;66.70;101501.97;4908069;28;119635;-83
2021/11/18 03:39:57;;;;;;;26.05;4.03;;;;;;;13.06;66.85;101538.25;4909069;28;121860;-83
2021/11/18 03:42:24;;;;;;;25.65;3.42;;;;;;;13.06;67.20;101528.00;4929562;28;120568;-83
2021/11/18 03:44:52;;;;;;;21.13;3.72;;;;;;;13.02;66.98;101523.84;4893262;28;123003;-83
2021/11/18 03:47:19;;;;;;;22.08;3.25;;;;;;;12.90;66.48;101504.16;4893591;28;121930;-83
2021/11/18 03:49:45;;;;;;;27.50;3.42;;;;;;;13.03;66.92;101533.63;4899045;28;121269;-82
2021/11/18 03:52:14;;;;;;;19.40;3.20;;;;;;;13.02;66.36;101538.38;4900646;28;124125;-83
2021/11/18 03:54:42;;;;;;;18.50;4.10;;;;;;;13.05;66.63;101528.44;4913980;28;123049;-83
2021/11/18 03:57:08;;;;;;;24.35;3.50;;;;;;;13.15;66.80;101527.28;4910725;28;120600;-83
2021/11/18 03:59:43;;;;;;;25.02;4.30;;;;;;;13.13;66.60;101538.00;4896552;28;122545;-83
2021/11/18 04:02:17;;;;;;;23.85;3.58;;;;;;;13.17;66.46;101538.63;4919472;28;123771;-83
2021/11/18 04:04:46;;;;;;;23.98;3.75;;;;;;;13.10;66.53;101527.88;4919298;28;119551;-83
2021/11/18 04:07:13;;;;;;;26.38;4.05;;;;;;;13.14;66.10;101534.78;4909495;28;120025;-85
2021/11/18 04:09:40;;;;;;;28.08;3.30;;;;;;;13.12;66.52;101530.94;4896714;28;120265;-84
2021/11/18 04:12:08;;;;;;;19.25;2.83;;;;;;;13.05;66.49;101525.69;4927759;28;119504;-83
2021/11/18 04:14:36;;;;;;;24.90;3.50;;;;;;;13.04;66.25;101532.41;4894562;28;122608;-83
2021/11/18 04:17:07;;;;;;;23.77;3.63;;;;;;;12.94;66.00;101519.78;4895706;28;120168;-83
2021/11/18 04:19:33;;;;;;;24.23;3.33;;;;;;;13.02;66.27;101532.09;4897263;28;122198;-83
2021/11/18 04:22:04;;;;;;;23.85;3.50;;;;;;;13.01;66.25;101533.28;4925043;28;122271;-83
2021/11/18 04:24:37;;;;;;;26.10;4.10;;;;;;;12.94;66.62;101519.78;4924835;28;124768;-83
2021/11/18 04:27:03;;;;;;;30.67;3.92;;;;;;;12.88;66.87;101514.84;4886045;28;122091;-82
2021/11/18 04:29:29;;;;;;;26.95;3.28;;;;;;;12.96;67.09;101529.13;4905478;28;119510;-83
2021/11/18 04:32:20;;;;;;;28.55;3.88;;;;;;;13.03;66.94;101541.91;4897809;28;122486;-82
2021/11/18 04:34:49;;;;;;;29.55;3.65;;;;;;;13.04;66.99;101546.19;4916498;28;120341;-81
2021/11/18 04:37:18;;;;;;;31.75;3.65;;;;;;;12.91;67.04;101519.44;4933200;28;119577;-83
2021/11/18 04:39:44;;;;;;;25.67;3.63;;;;;;;12.90;67.34;101508.88;4914949;28;122738;-82
2021/11/18 04:42:12;;;;;;;24.35;3.40;;;;;;;13.06;67.40;101535.50;4939169;28;120029;-82
2021/11/18 04:44:45;;;;;;;21.15;3.63;;;;;;;13.06;67.62;101527.22;4915319;28;119646;-82
2021/11/18 04:47:12;;;;;;;34.85;4.32;;;;;;;13.12;67.24;101530.94;4900458;28;123830;-83
2021/11/18 04:49:42;;;;;;;22.52;4.20;;;;;;;13.13;67.54;101538.00;4922058;28;123781;-83
2021/11/18 04:52:13;;;;;;;31.65;4.68;;;;;;;13.14;68.22;101534.03;4924454;28;122234;-83
2021/11/18 04:54:39;;;;;;;29.90;5.07;;;;;;;13.07;67.68;101504.75;4920155;28;123970;-83
2021/11/18 04:57:06;;;;;;;22.25;3.75;;;;;;;13.11;67.59;101521.91;4915409;28;119720;-83
2021/11/18 04:59:38;;;;;;;33.53;4.07;;;;;;;13.17;68.04;101522.09;4915087;28;119512;-83
2021/11/18 05:02:04;;;;;;;34.45;4.70;;;;;;;13.24;67.86;101527.38;4904262;28;124350;-83
2021/11/18 05:04:31;;;;;;;34.00;4.10;;;;;;;13.24;68.35;101515.59;4919206;28;120754;-82
2021/11/18 05:06:56;;;;;;;28.60;4.68;;;;;;;13.26;67.84;101508.44;4927453;28;121070;-83
2021/11/18 05:09:22;;;;;;;22.40;3.80;;;;;;;13.23;67.69;101503.81;4914654;28;121004;-83
2021/11/18 05:11:49;;;;;;;29.02;4.68;;;;;;;13.26;67.50;101502.16;4925769;28;124967;-83
2021/11/18 05:14:17;;;;;;;25.90;4.40;;;;;;;13.32;67.36;101506.63;4928513;28;120689;-83
2021/11/18 05:16:43;;;;;;;29.77;4.13;;;;;;;13.35;67.63;101504.97;4913461;28;119844;-82
2021/11/18 05:19:08;;;;;;;29.88;4.15;;;;;;;13.32;67.08;101509.41;4914581;28;122328;-84
2021/11/18 05:21:40;;;;;;;22.35;3.83;;;;;;;13.41;67.37;101522.47;4900163;28;123248;-83
2021/11/18 05:24:07;;;;;;;25.20;4.22;;;;;;;13.37;67.00;101508.03;4913508;28;120378;-83
2021/11/18 05:26:35;;;;;;;33.65;4.72;;;;;;;13.40;67.00;101524.44;4916196;28;120113;-82
2021/11/18 05:29:02;;;;;;;31.75;4.38;;;;;;;13.44;67.10;101529.81;4896457;28;123063;-83
2021/11/18 05:31:30;;;;;;;26.73;4.00;;;;;;;13.41;67.02;101531.50;4916603;28;119579;-83
2021/11/18 05:34:17;;;;;;;33.60;4.85;;;;;;;13.44;66.84;101530.59;4897327;28;123253;-83
2021/11/18 05:36:45;;;;;;;23.52;3.40;;;;;;;13.46;66.70;101533.66;4915982;28;119842;-82
2021/11/18 05:39:11;;;;;;;29.52;3.92;;;;;;;13.47;66.74;101545.47;4898153;28;122020;-83
2021/11/18 05:41:46;;;;;;;28.30;3.90;;;;;;;13.43;67.15;101539.31;4928164;28;120254;-82
2021/11/18 05:44:12;;;;;;;35.05;4.78;;;;;;;13.41;67.05;101542.50;4903010;28;119696;-83
2021/11/18 05:46:38;;;;;;;31.23;3.80;;;;;;;13.49;67.19;101545.81;4919804;28;122007;-83
2021/11/18 05:49:06;;;;;;;32.75;5.28;;;;;;;13.35;66.92;101519.53;4896497;28;122744;-83
2021/11/18 05:51:34;;;;;;;28.38;4.10;;;;;;;13.54;66.89;101544.44;4931241;28;119506;-83
2021/11/18 05:54:01;;;;;;;31.35;4.55;;;;;;;13.51;67.02;101532.34;4917049;28;119931;-83
2021/11/18 05:56:29;;;;;;;25.90;3.90;;;;;;;13.46;66.92;101519.13;4895925;28;119953;-83
2021/11/18 05:58:57;;;;;;;27.88;4.15;;;;;;;13.52;66.31;101520.88;4913770;28;122444;-82
2021/11/18 06:01:26;;;;;;;29.48;3.85;;;;;;;13.60;66.60;101531.63;4921958;28;123747;-83
2021/11/18 06:03:53;;;;;;;33.63;4.07;;;;;;;13.59;66.24;101528.09;4897063;28;119680;-82
2021/11/18 06:06:34;;;;;;;33.80;3.97;;;;;;;13.57;66.95;101515.97;4929794;28;119876;-83
2021/11/18 06:09:02;;;;;;;29.77;4.28;;;;;;;13.56;66.94;101531.75;4931059;28;120058;-83
2021/11/18 06:11:31;;;;;;;29.15;4.38;;;;;;;13.58;66.91;101534.81;4899174;28;120467;-83
2021/11/18 06:13:57;;;;;;;27.58;4.63;;;;;;;13.59;66.59;101536.38;4915275;28;122742;-83
2021/11/18 06:16:26;;;;;;;29.10;4.95;;;;;;;13.64;66.96;101565.34;4924292;28;123120;-83
2021/11/18 06:18:54;;;;;;;27.35;4.47;;;;;;;13.65;66.58;101544.81;4915793;28;119550;-83
2021/11/18 06:21:22;;;;;;;31.52;5.30;;;;;;;13.59;66.50;101530.09;4896600;28;122849;-82
2021/11/18 06:23:47;;;;;;;34.97;5.28;;;;;;;13.62;66.94;101538.22;4912546;28;120093;-82
2021/11/18 06:26:14;;;;;;;31.65;4.47;;;;;;;13.61;66.42;101550.47;4901477;28;123020;-83
2021/11/18 06:28:42;;;;;;;22.33;3.72;;;;;;;13.70;66.27;101558.78;4913290;28;123464;-83
2021/11/18 06:31:11;;;;;;;32.63;4.57;;;;;;;13.65;66.29;101555.84;4897436;28;120024;-82
2021/11/18 06:33:40;;;;;;;30.20;4.57;;;;;;;13.69;66.30;101567.50;4929842;28;119706;-83
2021/11/18 06:36:07;;;;;;;24.98;3.95;;;;;;;13.71;66.69;101565.84;4929203;28;120128;-83
2021/11/18 06:38:34;;;;;;;31.73;4.43;;;;;;;13.67;67.16;101559.69;4903169;28;120174;-83
2021/11/18 06:41:00;;;;;;;32.95;4.93;;;;;;;13.68;66.90;101554.94;4910871;28;120422;-83
2021/11/18 06:43:27;;;;;;;30.88;4.55;;;;;;;13.66;66.48;101543.59;4909600;28;119625;-83
2021/11/18 06:45:55;;;;;;;30.17;4.70;;;;;;;13.68;66.66;101552.19;4899298;28;122119;-83
2021/11/18 06:48:23;;;;;;;35.95;5.13;;;;;;;13.72;66.91;101550.84;4917661;28;123096;-83
2021/11/18 06:51:12;;;;;;;29.30;4.82;;;;;;;13.78;66.58;101560.06;4896379;28;119686;-83
2021/11/18 06:56:51;;;;;;;27.85;4.72;;;;;;;13.79;66.67;101555.31;2919616;22;121980;-85
2021/11/18 06:59:19;;;;;;;26.50;5.03;;;;;;;13.75;66.73;101549.94;4934544;28;119649;-84
2021/11/18 07:01:45;;;;;;;31.08;4.53;;;;;;;13.70;66.73;101542.22;4953038;28;119745;-84
2021/11/18 07:04:13;;;;;;;31.13;5.32;;;;;;;13.60;66.71;101531.63;4929142;28;120576;-84
2021/11/18 07:06:40;;;;;;;32.65;5.05;;;;;;;13.74;66.57;101555.91;4947591;28;122376;-85
2021/11/18 07:09:10;;;;;;;27.15;4.07;;;;;;;13.79;66.72;101561.59;4965904;28;119905;-84
2021/11/18 07:11:42;;;;;;;34.13;4.90;;;;;;;13.90;66.81;101572.22;4929591;28;120111;-84
2021/11/18 07:14:09;;;;;;;30.27;4.40;;;;;;;13.87;67.30;101556.59;4932273;28;121834;-84
2021/11/18 07:16:34;;;;;;;31.48;5.18;;;;;;;13.98;67.20;101558.94;4940309;28;120088;-86
2021/11/18 07:19:05;;;;;;;28.13;4.30;;;;;;;14.05;67.61;101573.22;4927812;28;120098;-84
2021/11/18 07:21:32;;;;;;;32.22;4.80;;;;;;;14.09;67.27;101567.56;4928311;28;122436;-84
2021/11/18 07:24:02;;;;;;;31.90;5.50;;;;;;;14.10;66.98;101567.13;4941119;28;122952;-84
2021/11/18 07:26:31;;;;;;;23.08;4.45;;;;;;;14.11;67.01;101565.91;4929567;28;121702;-84
2021/11/18 07:28:57;;;;;;;26.58;4.68;;;;;;;14.10;67.04;101561.59;4950169;28;120382;-84
2021/11/18 07:31:23;;;;;;;31.45;4.95;;;;;;;14.16;67.03;101561.00;4934776;28;119712;-85
2021/11/18 07:33:54;;;;;;;34.70;5.20;;;;;;;14.26;66.92;101559.84;4964609;28;121456;-83
2021/11/18 07:36:20;;;;;;;33.97;5.10;;;;;;;14.16;67.09;101547.97;4945917;28;121432;-85
2021/11/18 07:38:46;;;;;;;26.90;5.03;;;;;;;14.19;67.25;101538.78;4925858;28;119907;-83
2021/11/18 07:41:11;;;;;;;30.05;4.60;;;;;;;14.32;66.69;101558.00;4930529;28;121861;-84
2021/11/18 07:43:45;;;;;;;34.42;4.53;;;;;;;14.28;67.15;101565.66;4950990;28;119965;-84
2021/11/18 07:46:29;;;;;;;23.85;4.00;;;;;;;14.32;66.76;101563.53;4961812;28;120152;-85
2021/11/18 07:49:01;;;;;;;33.70;5.38;;;;;;;14.31;66.87;101564.75;4928103;28;120373;-83
2021/11/18 07:51:33;;;;;;;26.15;4.30;;;;;;;14.27;66.67;101545.59;4933277;28;119456;-83
2021/11/18 07:53:58;;;;;;;31.23;5.20;;;;;;;14.41;66.65;101571.81;4930061;28;120891;-84
2021/11/18 07:56:25;;;;;;;31.27;5.20;;;;;;;14.50;66.49;101582.94;4937793;28;123758;-84
2021/11/18 07:58:52;;;;;;;39.20;6.03;;;;;;;14.40;66.57;101560.03;4917352;28;119554;-83
2021/11/18 08:01:19;;;;;;;31.08;5.22;;;;;;;14.53;66.81;101578.50;4930405;28;122802;-83
2021/11/18 08:03:46;;;;;;;28.55;4.40;;;;;;;14.46;66.97;101574.03;4936334;28;123626;-82
2021/11/18 08:06:25;;;;;;;29.00;4.75;;;;;;;14.61;66.55;101588.78;4933467;28;119664;-84
2021/11/18 08:08:55;;;;;;;24.38;4.32;;;;;;;14.64;66.55;101589.88;4962925;28;122114;-83
2021/11/18 08:11:35;;;;;;;33.50;4.88;;;;;;;14.58;66.06;101569.63;4943575;28;124804;-84
2021/11/18 08:14:03;;;;;;;31.10;4.88;;;;;;;14.56;66.16;101556.28;4935074;28;122586;-84
2021/11/18 08:16:30;;;;;;;31.75;4.88;;;;;;;14.58;66.70;101559.34;4940521;28;122671;-83
2021/11/18 08:19:03;;;;;;;35.28;4.65;;;;;;;14.65;66.93;101567.31;4941842;28;120858;-83
2021/11/18 08:21:34;;;;;;;33.15;5.28;;;;;;;14.65;66.79;101566.56;4950459;28;121243;-84
2021/11/18 08:24:03;;;;;;;34.13;5.25;;;;;;;14.63;66.42;101560.72;4950725;28;120036;-84
2021/11/18 08:26:31;;;;;;;33.40;4.82;;;;;;;14.65;66.49;101561.81;4951415;28;119841;-84
2021/11/18 08:29:00;;;;;;;25.83;5.10;;;;;;;14.68;66.76;101571.97;4955794;28;121452;-84
2021/11/18 08:31:27;;;;;;;27.65;5.03;;;;;;;14.66;66.47;101568.09;4938186;28;119641;-83
2021/11/18 08:34:11;;;;;;;36.33;5.05;;;;;;;14.66;66.93;101560.56;4953421;28;122445;-83
2021/11/18 08:36:37;;;;;;;27.40;4.55;;;;;;;14.72;66.53;101574.56;4968277;28;120805;-84
2021/11/18 08:39:09;;;;;;;33.28;5.18;;;;;;;14.75;66.87;101568.13;4949230;28;120166;-84
2021/11/18 08:41:35;;;;;;;30.45;4.82;;;;;;;14.77;67.09;101571.19;4934502;28;121945;-84
2021/11/18 08:44:06;;;;;;;31.50;4.45;;;;;;;14.79;66.98;101579.78;4932145;28;122918;-84
2021/11/18 08:46:32;;;;;;;29.17;5.35;;;;;;;14.77;67.05;101570.44;4944530;28;119979;-84
2021/11/18 08:49:01;;;;;;;36.05;5.47;;;;;;;14.76;66.94;101564.13;4940043;28;119897;-84
2021/11/18 08:51:35;;;;;;;31.08;5.43;;;;;;;14.81;67.18;101562.75;4936897;28;122658;-84
2021/11/18 08:54:05;;;;;;;32.13;5.57;;;;;;;14.85;67.37;101569.66;4962446;28;121548;-83
2021/11/18 08:56:32;;;;;;;28.83;5.75;;;;;;;14.89;67.00;101575.81;4909815;28;123354;-83
2021/11/18 08:59:01;;;;;;;22.17;5.07;;;;;;;14.82;67.27;101561.53;4937284;28;120075;-84
2021/11/18 09:01:35;;;;;;;36.70;6.25;;;;;;;14.90;66.76;101558.00;4947432;28;119960;-83
2021/11/18 09:04:04;;;;;;;26.50;4.95;;;;;;;14.89;66.97;101562.00;4959326;28;120657;-82
2021/11/18 09:06:30;;;;;;;27.10;4.68;;;;;;;14.87;66.90;101566.44;4924753;28;120356;-83
2021/11/18 09:08:58;;;;;;;26.52;4.30;;;;;;;14.95;67.48;101570.47;4944588;28;122284;-85
2021/11/18 09:11:26;;;;;;;30.25;4.75;;;;;;;14.95;67.48;101568.47;4944192;28;120172;-84
2021/11/18 09:13:56;;;;;;;26.77;4.80;;;;;;;14.97;67.36;101573.53;4964972;28;119708;-84
2021/11/18 09:16:27;;;;;;;23.40;4.32;;;;;;;15.02;67.38;101587.50;4932046;28;123473;-84
2021/11/18 09:19:12;;;;;;;39.88;5.57;;;;;;;15.01;67.52;101568.63;4913148;28;120414;-84
2021/11/18 09:21:42;;;;;;;30.02;4.60;;;;;;;15.05;67.47;101569.22;4926978;28;120175;-84
2021/11/18 09:24:23;;;;;;;27.98;4.63;;;;;;;15.06;67.26;101568.00;4957806;28;120378;-84
2021/11/18 09:26:54;;;;;;;28.92;4.25;;;;;;;15.03;67.57;101566.94;4919898;28;120168;-84
2021/11/18 09:29:23;;;;;;;29.30;4.00;;;;;;;15.06;67.62;101568.00;4957473;28;120934;-84
2021/11/18 09:32:13;;;;;;;26.92;4.68;;;;;;;15.01;67.64;101561.09;4956713;28;123427;-84
2021/11/18 09:34:48;;;;;;;25.75;4.60;;;;;;;15.02;67.94;101570.91;4936575;28;122549;-84
2021/11/18 09:37:15;;;;;;;31.80;4.65;;;;;;;15.06;67.87;101568.00;4949982;28;122463;-83
2021/11/18 09:39:43;;;;;;;30.83;5.00;;;;;;;15.04;67.63;101564.94;4946715;28;125061;-85
2021/11/18 09:42:19;;;;;;;;;;;;;;;15.08;67.61;101568.31;4929320;28;122303;-84
2021/11/18 09:45:09;;;;;;;24.92;4.43;;;;;;;15.08;67.64;101562.00;4946370;28;120368;-83
2021/11/18 09:48:12;;;;;;;25.70;4.00;;;;;;;15.05;67.38;101570.00;4959687;28;119798;-83
2021/11/18 09:50:49;;;;;;;26.10;4.30;;;;;;;15.06;67.76;101568.00;4944950;28;119788;-85
2021/11/18 09:53:35;;;;;;;30.50;5.22;;;;;;;14.93;67.81;101546.06;4931428;28;124060;-83
2021/11/18 09:56:25;;;;;;;25.65;4.50;;;;;;;15.04;67.97;101560.19;4945948;28;119623;-85
2021/11/18 09:59:13;;;;;;;27.58;4.57;;;;;;;15.03;68.06;101557.88;4952836;28;119821;-84
2021/11/18 10:02:11;;;;;;;25.35;4.40;;;;;;;14.96;67.94;101534.09;4935092;28;120814;-84
2021/11/18 10:05:01;;;;;;;27.70;4.40;;;;;;;14.97;68.57;101529.34;4931660;28;124510;-85
2021/11/18 10:07:52;;;;;;;25.10;4.38;;;;;;;15.06;68.60;101543.13;4947253;28;120989;-85
2021/11/18 10:10:22;;;;;;;28.67;4.55;;;;;;;15.07;68.56;101539.16;4908854;28;121264;-85
2021/11/18 10:13:12;;;;;;;23.00;4.95;;;;;;;15.08;68.38;101535.16;4955598;28;121295;-85
2021/11/18 10:15:48;;;;;;;34.30;5.47;;;;;;;15.11;68.32;101542.50;4932310;28;123132;-84
2021/11/18 10:18:29;;;;;;;34.28;5.10;;;;;;;15.08;68.50;101534.38;4947174;28;120496;-84
2021/11/18 10:21:02;;;;;;;30.23;4.60;;;;;;;15.17;68.73;101543.47;4948226;28;123311;-85
2021/11/18 10:23:28;;;;;;;28.73;4.50;;;;;;;15.21;68.76;101541.31;4951631;28;123059;-86
2021/11/18 10:26:05;;;;;;;25.08;4.50;;;;;;;15.27;68.25;101531.16;4942152;28;121924;-84
2021/11/18 10:29:05;;;;;;;32.28;5.38;;;;;;;15.26;67.83;101524.09;4931416;28;122836;-84
2021/11/18 10:31:37;;;;;;;36.60;4.88;;;;;;;15.31;68.24;101517.16;4929944;28;120410;-83
2021/11/18 10:34:10;;;;;;;27.65;4.82;;;;;;;15.30;68.27;101508.13;4930525;28;122429;-84
2021/11/18 10:36:48;;;;;;;34.83;5.47;;;;;;;15.33;68.33;101518.25;4970260;28;120928;-84
2021/11/18 10:39:32;;;;;;;24.27;4.60;;;;;;;15.25;68.13;101511.50;4945043;28;119936;-84
2021/11/18 10:42:09;;;;;;;26.83;4.53;;;;;;;15.33;68.15;101514.72;4976627;28;120126;-85
2021/11/18 10:45:01;;;;;;;34.33;5.63;;;;;;;15.31;68.26;101506.13;4980160;28;121658;-87
2021/11/18 10:47:38;;;;;;;30.35;4.80;;;;;;;15.31;67.90;101497.81;4921060;28;119689;-86
2021/11/18 10:50:31;;;;;;;40.28;6.68;;;;;;;15.30;68.07;101486.00;4963310;28;120513;-87
2021/11/18 10:53:11;;;;;;;27.15;5.20;;;;;;;15.30;68.28;101483.22;4918387;28;119861;-86
2021/11/18 10:55:40;;;;;;;34.10;5.68;;;;;;;15.28;68.49;101496.00;4918284;28;122379;-87
2021/11/18 10:58:14;;;;;;;30.45;5.35;;;;;;;15.20;68.64;101492.78;4949404;28;123290;-85
2021/11/18 11:00:55;;;;;;;;;;;;;;;15.22;68.50;101495.09;4930081;28;121727;-86
2021/11/18 11:03:23;;;;;;;26.90;5.13;;;;;;;15.22;68.37;101495.84;4966769;28;122777;-87
2021/11/18 11:06:15;;;;;;;23.83;4.72;;;;;;;15.18;68.78;101491.72;4960028;28;122033;-86
2021/11/18 11:08:47;;;;;;;26.08;5.25;;;;;;;15.18;68.63;101495.25;4961156;28;119964;-87
2021/11/18 11:11:28;;;;;;;27.45;4.70;;;;;;;15.21;68.88;101496.31;4950697;28;122021;-87
2021/11/18 11:13:56;;;;;;;31.02;5.25;;;;;;;15.21;68.48;101486.03;4934752;28;119944;-88
2021/11/18 11:16:41;;;;;;;33.72;5.30;;;;;;;15.17;68.79;101485.41;4958681;28;122051;-87
2021/11/18 11:19:31;;;;;;;22.80;4.55;;;;;;;15.10;68.76;101477.44;4928507;28;123497;-87
2021/11/18 11:22:13;;;;;;;24.92;4.82;;;;;;;15.11;68.85;101481.72;4960715;28;119994;-84
2021/11/18 11:24:47;;;;;;;33.20;5.13;;;;;;;15.11;69.04;101478.97;4931377;28;122387;-84
2021/11/18 11:27:31;;;;;;;;;;;;;;;15.13;69.12;101478.50;4962290;28;120632;-86
2021/11/18 11:30:13;;;;;;;28.40;4.82;;;;;;;15.15;69.36;101463.00;4941240;28;120652;-88